Time;durP1;ratioP1;P1;durP2;ratioP2;P2;SDS_P1;SDS_P2;PMS_P1;PMS_P2;Temp;Humidity;BMP_temperature;BMP_pressure;BME280_temperature;BME280_humidity;BME280_pressure;Samples;Min_cycle;Max_cycle;Signal;HPM_P1;HPM_P2
2023/03/12 00:02:17;;;;;;;7.90;4.07;;;0.20;99.90;;;;;;5046551;28;20056;-73
2023/03/12 00:04:42;;;;;;;5.70;3.23;;;0.10;99.90;;;;;;5046936;28;20332;-74
2023/03/12 00:07:08;;;;;;;4.37;3.73;;;0.20;99.90;;;;;;5028786;28;20174;-74
2023/03/12 00:09:35;;;;;;;4.67;2.60;;;0.20;99.90;;;;;;5028865;28;20045;-75
2023/03/12 00:12:01;;;;;;;4.27;2.30;;;0.20;99.90;;;;;;5029038;28;20477;-74
2023/03/12 00:14:27;;;;;;;5.23;3.10;;;0.20;99.90;;;;;;5028173;28;20495;-74
2023/03/12 00:16:54;;;;;;;2.40;2.10;;;0.20;99.90;;;;;;5046920;28;20060;-73
2023/03/12 00:19:21;;;;;;;6.70;2.83;;;0.20;99.90;;;;;;5046369;28;20136;-74
2023/03/12 00:21:46;;;;;;;8.27;3.17;;;0.20;99.90;;;;;;5046947;28;20079;-74
2023/03/12 00:24:12;;;;;;;4.50;2.90;;;0.10;99.90;;;;;;5046515;28;20132;-74
2023/03/12 00:26:38;;;;;;;3.80;2.17;;;0.20;99.90;;;;;;5029217;28;20052;-73
2023/03/12 00:29:03;;;;;;;6.00;2.67;;;0.20;99.90;;;;;;5045314;28;20048;-74
2023/03/12 00:31:31;;;;;;;8.30;3.07;;;0.10;99.90;;;;;;5047241;28;20049;-74
2023/03/12 00:33:59;;;;;;;16.27;3.33;;;0.10;99.90;;;;;;5028989;28;20049;-74
2023/03/12 00:36:27;;;;;;;6.00;3.37;;;0.10;99.90;;;;;;5028204;28;20041;-74
2023/03/12 00:38:54;;;;;;;2.97;2.47;;;0.10;99.90;;;;;;5046385;28;20048;-74
2023/03/12 00:41:21;;;;;;;5.43;4.13;;;0.10;99.90;;;;;;5046314;28;20045;-74
2023/03/12 00:43:48;;;;;;;4.07;2.53;;;0.00;99.90;;;;;;5061679;28;20040;-74
2023/03/12 00:46:14;;;;;;;3.60;2.10;;;0.00;99.90;;;;;;5027947;28;20477;-74
2023/03/12 00:48:39;;;;;;;4.77;2.83;;;0.00;99.90;;;;;;5045809;28;20041;-74
2023/03/12 00:51:05;;;;;;;4.03;3.47;;;0.00;99.90;;;;;;5045766;28;20138;-74
2023/03/12 00:53:31;;;;;;;6.83;3.63;;;0.10;99.90;;;;;;5045882;28;20048;-74
2023/03/12 00:55:56;;;;;;;13.80;5.03;;;0.10;99.90;;;;;;5045973;28;20455;-74
2023/03/12 00:58:22;;;;;;;4.53;3.33;;;0.10;99.90;;;;;;5045961;28;20400;-74
2023/03/12 01:00:48;;;;;;;4.13;3.00;;;0.10;99.90;;;;;;5027508;28;20080;-73
2023/03/12 01:03:13;;;;;;;2.70;2.47;;;0.10;99.90;;;;;;5045331;28;20053;-73
2023/03/12 01:05:39;;;;;;;5.17;2.70;;;0.10;99.90;;;;;;5045539;28;20080;-73
2023/03/12 01:08:07;;;;;;;5.07;2.63;;;0.00;99.90;;;;;;5027682;28;20037;-73
2023/03/12 01:10:33;;;;;;;3.10;2.50;;;0.00;99.90;;;;;;5027366;28;20049;-73
2023/03/12 01:12:59;;;;;;;2.60;2.07;;;0.00;99.90;;;;;;5046539;28;20120;-74
2023/03/12 01:15:24;;;;;;;5.77;3.73;;;0.00;99.90;;;;;;5044680;28;20120;-73
2023/03/12 01:17:50;;;;;;;4.53;2.87;;;-0.10;99.90;;;;;;5045577;28;20055;-74
2023/03/12 01:20:16;;;;;;;4.93;3.40;;;-0.10;99.90;;;;;;5045155;28;20041;-74
2023/03/12 01:22:43;;;;;;;3.00;2.43;;;-0.10;99.90;;;;;;5045647;28;20277;-73
2023/03/12 01:25:09;;;;;;;4.27;2.90;;;0.00;99.90;;;;;;5045247;28;20040;-74
2023/03/12 01:27:35;;;;;;;4.37;3.90;;;0.00;99.90;;;;;;5027935;28;20134;-73
2023/03/12 01:30:03;;;;;;;6.17;4.30;;;0.00;99.90;;;;;;5026236;28;20049;-74
2023/03/12 01:32:28;;;;;;;7.20;3.83;;;0.00;99.90;;;;;;5045901;28;20509;-73
2023/03/12 01:34:54;;;;;;;7.93;4.33;;;0.10;99.90;;;;;;5044559;28;20049;-74
2023/03/12 01:37:20;;;;;;;6.80;5.43;;;0.10;99.90;;;;;;5026713;28;20044;-74
2023/03/12 01:39:45;;;;;;;4.93;3.83;;;0.10;99.90;;;;;;5045105;28;20045;-73
2023/03/12 01:42:11;;;;;;;6.33;5.13;;;0.10;99.90;;;;;;5044781;28;20666;-74
2023/03/12 01:44:54;;;;;;;10.40;4.57;;;0.10;99.90;;;;;;5043910;28;20708;-73
2023/03/12 01:47:19;;;;;;;28.53;5.43;;;0.10;99.90;;;;;;5037130;28;20158;-73
2023/03/12 01:49:47;;;;;;;10.40;5.00;;;0.20;99.90;;;;;;5010568;28;20493;-74
2023/03/12 01:52:20;;;;;;;5.37;4.13;;;0.20;99.90;;;;;;5059852;28;20094;-74
2023/03/12 01:54:48;;;;;;;14.17;5.03;;;0.20;99.90;;;;;;5026769;28;20068;-75
2023/03/12 01:57:22;;;;;;;5.43;4.50;;;0.20;99.90;;;;;;5028107;28;20131;-74
2023/03/12 01:59:55;;;;;;;7.00;4.73;;;0.20;99.90;;;;;;5026183;28;20044;-74
2023/03/12 02:02:25;;;;;;;7.30;4.90;;;0.20;99.90;;;;;;5026211;28;20106;-74
2023/03/12 02:05:01;;;;;;;4.20;3.77;;;0.20;99.90;;;;;;5043700;28;20110;-73
2023/03/12 02:07:27;;;;;;;7.67;5.13;;;0.30;99.90;;;;;;5080159;23;1073184;-74
2023/03/12 02:09:53;;;;;;;6.00;4.20;;;0.30;99.90;;;;;;5026845;28;20068;-73
2023/03/12 02:12:18;;;;;;;6.77;4.83;;;0.30;99.90;;;;;;5059713;28;20045;-74
2023/03/12 02:14:44;;;;;;;6.33;5.20;;;0.30;99.90;;;;;;5043712;28;20040;-73
2023/03/12 02:17:10;;;;;;;5.67;3.80;;;0.40;99.90;;;;;;5044411;28;20120;-73
2023/03/12 02:20:12;;;;;;;6.27;4.97;;;0.40;99.90;;;;;;5029774;28;20052;-74
2023/03/12 02:22:40;;;;;;;6.95;4.00;;;0.40;99.90;;;;;;5030773;28;20118;-73
2023/03/12 02:25:35;;;;;;;7.20;5.63;;;0.40;99.90;;;;;;5045680;28;20154;-73
2023/03/12 02:28:06;;;;;;;9.17;5.93;;;0.40;99.90;;;;;;5026490;28;20049;-74
2023/03/12 02:30:32;;;;;;;7.03;4.13;;;0.50;99.90;;;;;;5060333;28;20127;-74
2023/03/12 02:33:06;;;;;;;8.33;4.90;;;0.50;99.90;;;;;;5063645;28;20291;-73
2023/03/12 02:35:31;;;;;;;5.73;4.37;;;0.50;99.90;;;;;;5046822;28;20041;-73
2023/03/12 02:37:57;;;;;;;7.57;3.77;;;0.50;99.90;;;;;;5044830;28;20091;-73
2023/03/12 02:40:30;;;;;;;5.63;4.20;;;0.50;99.90;;;;;;5044839;28;20049;-74
2023/03/12 02:42:56;;;;;;;6.77;5.40;;;0.60;99.90;;;;;;5046994;28;20529;-73
2023/03/12 02:45:24;;;;;;;5.00;4.50;;;0.50;99.90;;;;;;5063156;28;20044;-74
2023/03/12 02:47:50;;;;;;;7.73;6.07;;;0.60;99.90;;;;;;5033184;28;20148;-73
2023/03/12 02:50:16;;;;;;;6.57;4.43;;;0.60;99.90;;;;;;5038984;28;20515;-74
2023/03/12 02:52:41;;;;;;;6.57;5.57;;;0.60;99.90;;;;;;5055419;28;20053;-73
2023/03/12 02:55:08;;;;;;;6.30;4.50;;;0.60;99.90;;;;;;5062802;28;20041;-73
2023/03/12 02:57:36;;;;;;;6.10;4.90;;;0.60;99.90;;;;;;5053647;28;20055;-73
2023/03/12 03:00:13;;;;;;;6.47;3.77;;;0.60;99.90;;;;;;5041603;28;20051;-74
2023/03/12 03:02:40;;;;;;;4.97;4.47;;;0.60;99.90;;;;;;5031391;28;20066;-74
2023/03/12 03:05:08;;;;;;;5.53;3.30;;;0.70;99.90;;;;;;5036984;28;20057;-73
2023/03/12 03:07:33;;;;;;;5.47;3.67;;;0.70;99.90;;;;;;5048188;28;20134;-73
2023/03/12 03:10:03;;;;;;;4.83;3.37;;;0.70;99.90;;;;;;5049070;28;20594;-75
2023/03/12 03:12:29;;;;;;;6.00;4.23;;;0.70;99.90;;;;;;5039457;28;20048;-73
2023/03/12 03:14:55;;;;;;;11.33;5.23;;;0.70;99.90;;;;;;5048849;28;20040;-73
2023/03/12 03:17:23;;;;;;;3.20;2.90;;;0.80;99.90;;;;;;5065985;28;20032;-74
2023/03/12 03:19:49;;;;;;;5.50;4.00;;;0.80;99.90;;;;;;5032006;28;20055;-74
2023/03/12 03:22:15;;;;;;;4.90;3.97;;;0.80;99.90;;;;;;5025127;28;20557;-74
2023/03/12 03:24:41;;;;;;;8.23;3.67;;;0.80;99.90;;;;;;5047816;28;20048;-74
2023/03/12 03:27:06;;;;;;;4.90;4.47;;;0.80;99.90;;;;;;5062612;28;20435;-74
2023/03/12 03:29:32;;;;;;;10.10;4.77;;;0.80;99.90;;;;;;5048203;28;20076;-74
2023/03/12 03:31:58;;;;;;;5.77;4.63;;;0.80;99.90;;;;;;5047832;28;20546;-74
2023/03/12 03:34:23;;;;;;;4.07;3.00;;;0.90;99.90;;;;;;5052124;28;20404;-74
2023/03/12 03:36:49;;;;;;;4.47;2.67;;;0.80;99.90;;;;;;5020574;28;20094;-73
2023/03/12 03:39:14;;;;;;;12.90;5.33;;;0.90;99.90;;;;;;5047368;28;20051;-73
2023/03/12 03:41:40;;;;;;;8.33;3.77;;;0.90;99.90;;;;;;5031142;28;20833;-74
2023/03/12 03:44:06;;;;;;;8.70;3.70;;;0.90;99.90;;;;;;5066480;28;20074;-73
2023/03/12 03:46:34;;;;;;;6.17;3.97;;;0.90;99.90;;;;;;5061135;28;20378;-73
2023/03/12 03:49:00;;;;;;;5.93;3.23;;;0.90;99.90;;;;;;5047396;28;20103;-75
2023/03/12 03:51:26;;;;;;;5.60;3.37;;;0.90;99.90;;;;;;5065528;28;20048;-73
2023/03/12 03:53:51;;;;;;;3.50;2.63;;;0.90;99.90;;;;;;5067482;28;20442;-73
2023/03/12 03:56:17;;;;;;;7.37;2.93;;;0.90;99.90;;;;;;5048584;28;20499;-74
2023/03/12 03:58:43;;;;;;;4.50;2.77;;;0.90;99.90;;;;;;5046849;28;20045;-73
2023/03/12 04:01:09;;;;;;;3.63;2.97;;;0.90;99.90;;;;;;5040850;28;20147;-73
2023/03/12 04:03:34;;;;;;;6.57;4.20;;;0.90;99.90;;;;;;5047359;28;20052;-74
2023/03/12 04:06:02;;;;;;;5.20;3.27;;;1.00;99.90;;;;;;5040805;28;20045;-74
2023/03/12 04:08:28;;;;;;;4.57;3.93;;;1.00;99.90;;;;;;5029354;28;20413;-73
2023/03/12 04:10:54;;;;;;;5.70;3.50;;;1.00;99.90;;;;;;5047007;28;20061;-73
2023/03/12 04:13:20;;;;;;;4.73;3.43;;;1.00;99.90;;;;;;5045708;28;20095;-74
2023/03/12 04:15:51;;;;;;;4.07;3.43;;;1.00;99.90;;;;;;5047189;28;20064;-73
2023/03/12 04:18:17;;;;;;;4.60;2.40;;;1.00;99.90;;;;;;5046883;28;20045;-74
2023/03/12 04:20:43;;;;;;;5.77;3.33;;;1.00;99.90;;;;;;5041114;28;20522;-73
2023/03/12 04:23:09;;;;;;;4.90;4.17;;;1.00;99.90;;;;;;5033297;28;20084;-73
2023/03/12 04:25:35;;;;;;;5.07;3.47;;;1.00;99.90;;;;;;5061328;28;20127;-73
2023/03/12 04:28:01;;;;;;;7.57;4.17;;;1.00;99.90;;;;;;5066355;28;20114;-74
2023/03/12 04:30:27;;;;;;;6.57;4.50;;;1.00;99.90;;;;;;5066246;28;20544;-74
2023/03/12 04:32:53;;;;;;;7.77;3.13;;;1.00;99.90;;;;;;5066449;28;20040;-73
2023/03/12 04:35:19;;;;;;;9.47;3.83;;;1.00;99.90;;;;;;5066739;28;20044;-73
2023/03/12 04:37:44;;;;;;;8.10;3.43;;;1.00;99.90;;;;;;5031958;28;20503;-74
2023/03/12 04:40:11;;;;;;;9.33;4.43;;;1.10;99.90;;;;;;5048017;28;20545;-73
2023/03/12 04:42:37;;;;;;;3.23;2.93;;;1.10;99.90;;;;;;5066360;28;20082;-74
2023/03/12 04:45:05;;;;;;;3.57;3.27;;;1.10;99.90;;;;;;5065228;28;20083;-73
2023/03/12 04:47:31;;;;;;;4.67;3.83;;;1.10;99.90;;;;;;5052382;28;20049;-74
2023/03/12 04:49:57;;;;;;;6.77;3.50;;;1.10;99.90;;;;;;5029053;28;20527;-74
2023/03/12 04:52:23;;;;;;;5.10;3.00;;;1.10;99.90;;;;;;5028069;28;20045;-73
2023/03/12 04:54:49;;;;;;;5.03;3.50;;;1.10;99.90;;;;;;5028337;28;20128;-73
2023/03/12 04:57:15;;;;;;;6.27;4.67;;;1.10;99.90;;;;;;5027760;28;20037;-74
2023/03/12 04:59:41;;;;;;;5.63;4.13;;;1.10;99.90;;;;;;5045054;28;20069;-74
2023/03/12 05:02:07;;;;;;;5.83;2.57;;;1.10;99.90;;;;;;5027925;28;20049;-74
2023/03/12 05:04:32;;;;;;;3.77;3.47;;;1.00;99.90;;;;;;5028516;28;20041;-73
2023/03/12 05:06:58;;;;;;;10.33;5.37;;;1.10;99.90;;;;;;5028438;28;20543;-74
2023/03/12 05:09:24;;;;;;;3.87;3.50;;;1.00;99.90;;;;;;5044918;28;20056;-73
2023/03/12 05:11:49;;;;;;;6.13;4.50;;;1.00;99.90;;;;;;5014560;28;20501;-73
2023/03/12 05:14:15;;;;;;;8.63;4.97;;;1.00;99.90;;;;;;5064293;28;20412;-74
2023/03/12 05:16:41;;;;;;;4.30;3.70;;;1.00;99.90;;;;;;5065934;28;20555;-74
2023/03/12 05:19:06;;;;;;;2.53;2.33;;;1.00;99.90;;;;;;5065487;28;20575;-74
2023/03/12 05:21:32;;;;;;;3.47;3.10;;;1.00;99.90;;;;;;5065717;28;20123;-74
2023/03/12 05:23:59;;;;;;;4.73;4.00;;;1.00;99.90;;;;;;5064290;28;20041;-73
2023/03/12 05:26:32;;;;;;;5.70;3.57;;;1.00;99.90;;;;;;5047861;28;20032;-73
2023/03/12 05:29:00;;;;;;;4.83;3.73;;;1.00;99.90;;;;;;5046896;28;20037;-73
2023/03/12 05:31:26;;;;;;;4.83;3.00;;;1.00;99.90;;;;;;5048321;28;20048;-74
2023/03/12 05:33:51;;;;;;;9.80;4.87;;;1.00;99.90;;;;;;5065061;28;20038;-74
2023/03/12 05:36:17;;;;;;;4.13;3.10;;;1.10;99.90;;;;;;5064937;28;20385;-74
2023/03/12 05:38:43;;;;;;;5.07;3.60;;;1.10;99.90;;;;;;5065320;28;20079;-74
2023/03/12 05:41:21;;;;;;;6.37;4.10;;;1.10;99.90;;;;;;5064936;28;20443;-74
2023/03/12 05:43:46;;;;;;;10.43;3.30;;;1.10;99.90;;;;;;5046166;28;20041;-74
2023/03/12 05:46:13;;;;;;;3.63;3.33;;;1.10;99.90;;;;;;5061946;28;20044;-73
2023/03/12 05:48:38;;;;;;;4.23;2.63;;;1.10;99.90;;;;;;5045163;28;20087;-74
2023/03/12 05:51:04;;;;;;;9.80;4.43;;;1.10;99.90;;;;;;5045263;28;20399;-73
2023/03/12 05:53:30;;;;;;;4.07;3.37;;;1.10;99.90;;;;;;5060753;28;20037;-75
2023/03/12 05:56:02;;;;;;;9.63;3.53;;;1.10;99.90;;;;;;5046545;28;20056;-73
2023/03/12 05:58:27;;;;;;;5.18;2.97;;;1.20;99.90;;;;;;5055600;28;20036;-73
2023/03/12 06:00:53;;;;;;;5.03;3.60;;;1.20;99.90;;;;;;5027456;28;20041;-73
2023/03/12 06:03:19;;;;;;;5.07;3.40;;;1.20;99.90;;;;;;5037526;28;20304;-73
2023/03/12 06:05:46;;;;;;;5.33;3.00;;;1.20;99.90;;;;;;5046917;28;20488;-73
2023/03/12 06:08:12;;;;;;;7.03;3.47;;;1.20;99.90;;;;;;5023560;28;20053;-74
2023/03/12 06:10:38;;;;;;;9.10;4.73;;;1.20;99.90;;;;;;5027226;28;20060;-73
2023/03/12 06:13:04;;;;;;;3.83;2.70;;;1.20;99.90;;;;;;5046314;28;20045;-74
2023/03/12 06:15:30;;;;;;;5.70;3.87;;;1.20;99.90;;;;;;5047070;28;20130;-75
2023/03/12 06:17:55;;;;;;;5.00;3.93;;;1.20;99.90;;;;;;5063651;28;20099;-73
2023/03/12 06:20:22;;;;;;;8.90;4.80;;;1.20;99.90;;;;;;5032219;28;20040;-74
2023/03/12 06:22:47;;;;;;;3.27;2.97;;;1.20;99.90;;;;;;5027308;28;20404;-74
2023/03/12 06:25:13;;;;;;;6.13;3.50;;;1.20;99.90;;;;;;5026745;28;20128;-74
2023/03/12 06:27:39;;;;;;;6.77;4.37;;;1.20;99.90;;;;;;5010356;28;20060;-73
2023/03/12 06:30:06;;;;;;;5.50;3.37;;;1.20;99.90;;;;;;5045894;28;20492;-73
2023/03/12 06:32:32;;;;;;;7.73;3.87;;;1.20;99.90;;;;;;5043842;28;20045;-74
2023/03/12 06:34:59;;;;;;;5.37;4.23;;;1.30;99.90;;;;;;5024787;28;20055;-74
2023/03/12 06:37:25;;;;;;;7.77;5.20;;;1.20;99.90;;;;;;5045352;28;20071;-73
2023/03/12 06:39:51;;;;;;;6.83;3.80;;;1.30;99.90;;;;;;5044439;28;20049;-74
2023/03/12 06:42:18;;;;;;;4.37;3.47;;;1.30;99.90;;;;;;5042829;28;20055;-75
2023/03/12 06:44:44;;;;;;;10.90;4.47;;;1.30;99.90;;;;;;5025684;28;20045;-73
2023/03/12 06:47:10;;;;;;;32.80;5.70;;;1.30;99.90;;;;;;5010858;28;20060;-73
2023/03/12 06:49:36;;;;;;;4.77;4.10;;;1.30;99.90;;;;;;5012040;28;20084;-73
2023/03/12 06:52:02;;;;;;;4.07;3.57;;;1.30;99.90;;;;;;5059313;28;20059;-74
2023/03/12 06:54:28;;;;;;;7.07;3.93;;;1.30;99.90;;;;;;5048960;28;20051;-75
2023/03/12 06:56:53;;;;;;;8.70;4.33;;;1.30;99.90;;;;;;5044109;28;20120;-74
2023/03/12 06:59:20;;;;;;;5.17;4.50;;;1.30;99.90;;;;;;5008320;28;20416;-74
2023/03/12 07:01:46;;;;;;;7.63;3.90;;;1.30;99.90;;;;;;5026737;28;20633;-74
2023/03/12 07:04:13;;;;;;;6.40;4.10;;;1.30;99.90;;;;;;5045120;28;20052;-74
2023/03/12 07:06:38;;;;;;;4.63;4.03;;;1.30;99.90;;;;;;5009574;28;20045;-75
2023/03/12 07:09:04;;;;;;;8.63;5.03;;;1.30;99.90;;;;;;5025655;28;20065;-75
2023/03/12 07:11:30;;;;;;;4.50;3.70;;;1.30;99.90;;;;;;5043282;28;20094;-75
2023/03/12 07:13:56;;;;;;;6.37;3.90;;;1.30;99.90;;;;;;5043814;28;20475;-74
2023/03/12 07:16:22;;;;;;;7.60;4.33;;;1.40;99.90;;;;;;5023195;28;20048;-74
2023/03/12 07:18:47;;;;;;;5.87;4.40;;;1.40;99.90;;;;;;5040692;28;20080;-74
2023/03/12 07:21:21;;;;;;;5.73;4.97;;;1.30;99.90;;;;;;5037106;28;20424;-75
2023/03/12 07:23:50;;;;;;;7.40;5.10;;;1.40;99.90;;;;;;5008787;28;20056;-74
2023/03/12 07:26:15;;;;;;;6.60;5.13;;;1.30;99.90;;;;;;5025426;28;20073;-75
2023/03/12 07:28:41;;;;;;;4.73;3.83;;;1.40;99.90;;;;;;5042378;28;20440;-75
2023/03/12 07:31:07;;;;;;;5.37;4.73;;;1.40;99.90;;;;;;5058980;28;20041;-75
2023/03/12 07:33:33;;;;;;;6.33;5.07;;;1.40;99.90;;;;;;5060973;28;20078;-75
2023/03/12 07:35:59;;;;;;;4.43;3.97;;;1.40;99.90;;;;;;5058203;28;20044;-74
2023/03/12 07:38:25;;;;;;;6.13;3.60;;;1.40;99.90;;;;;;5048684;28;20036;-75
2023/03/12 07:40:55;;;;;;;4.57;3.83;;;1.40;99.90;;;;;;5048697;28;20135;-75
2023/03/12 07:43:21;;;;;;;5.13;4.73;;;1.40;99.90;;;;;;5027796;28;20519;-74
2023/03/12 07:45:47;;;;;;;6.47;4.30;;;1.40;99.90;;;;;;5058590;28;20067;-75
2023/03/12 07:48:13;;;;;;;6.37;3.97;;;1.40;99.90;;;;;;5029305;28;20473;-74
2023/03/12 07:50:38;;;;;;;4.63;3.10;;;1.40;99.90;;;;;;5028983;28;20127;-74
2023/03/12 07:53:05;;;;;;;20.47;5.03;;;1.40;99.90;;;;;;5046692;28;20044;-74
2023/03/12 07:55:32;;;;;;;6.97;4.27;;;1.40;99.90;;;;;;5062954;28;20436;-74
2023/03/12 07:57:57;;;;;;;7.40;4.90;;;1.50;99.90;;;;;;5048332;28;20053;-74
2023/03/12 08:00:27;;;;;;;6.87;4.87;;;1.40;99.90;;;;;;5064890;28;20159;-73
2023/03/12 08:02:52;;;;;;;9.63;4.37;;;1.40;99.90;;;;;;5048746;28;20090;-74
2023/03/12 08:05:19;;;;;;;29.97;6.53;;;1.40;99.90;;;;;;5034736;28;20045;-74
2023/03/12 08:07:44;;;;;;;6.13;5.20;;;1.50;99.90;;;;;;5029022;28;20059;-73
2023/03/12 08:10:11;;;;;;;4.93;4.23;;;1.50;99.90;;;;;;5046484;28;20072;-74
2023/03/12 08:12:36;;;;;;;8.20;4.63;;;1.50;99.90;;;;;;5046244;28;20440;-75
2023/03/12 08:15:04;;;;;;;5.97;4.27;;;1.50;99.90;;;;;;5046408;28;20052;-74
2023/03/12 08:17:29;;;;;;;5.93;4.50;;;1.50;99.90;;;;;;5012756;28;20084;-75
2023/03/12 08:19:55;;;;;;;9.50;4.53;;;1.50;99.90;;;;;;5047286;28;20547;-74
2023/03/12 08:22:21;;;;;;;9.77;6.13;;;1.50;99.90;;;;;;5045486;28;20097;-74
2023/03/12 08:24:46;;;;;;;6.43;4.53;;;1.50;99.90;;;;;;5056875;28;20455;-73
2023/03/12 08:27:12;;;;;;;7.33;5.63;;;1.50;99.90;;;;;;5066196;28;20036;-73
2023/03/12 08:29:39;;;;;;;10.70;4.60;;;1.50;99.90;;;;;;5055582;28;20104;-75
2023/03/12 08:32:05;;;;;;;8.30;4.97;;;1.50;99.90;;;;;;5043551;28;20044;-73
2023/03/12 08:34:32;;;;;;;10.73;5.87;;;1.50;99.90;;;;;;5029522;28;20098;-74
2023/03/12 08:36:58;;;;;;;11.23;5.03;;;1.60;99.90;;;;;;5047139;28;20479;-73
2023/03/12 08:39:24;;;;;;;11.40;6.17;;;1.60;99.90;;;;;;5033179;28;20543;-73
2023/03/12 08:41:54;;;;;;;8.87;4.40;;;1.60;99.90;;;;;;5048673;28;20408;-73
2023/03/12 08:44:23;;;;;;;7.00;6.07;;;1.60;99.90;;;;;;5061815;28;20812;-74
2023/03/12 08:46:48;;;;;;;5.33;4.80;;;1.60;99.90;;;;;;5038496;28;20159;-74
2023/03/12 08:49:14;;;;;;;9.07;5.63;;;1.60;99.90;;;;;;5027460;28;20124;-74
2023/03/12 08:51:39;;;;;;;6.37;4.97;;;1.60;99.90;;;;;;5045142;28;20441;-74
2023/03/12 08:54:05;;;;;;;9.17;5.63;;;1.70;99.90;;;;;;5045159;28;20033;-73
2023/03/12 08:56:31;;;;;;;10.23;6.47;;;1.70;99.90;;;;;;5060402;28;20055;-74
2023/03/12 08:58:58;;;;;;;9.73;6.90;;;1.70;99.90;;;;;;5026820;28;20037;-73
2023/03/12 09:01:23;;;;;;;10.23;5.87;;;1.70;99.90;;;;;;5027132;28;20068;-74
2023/03/12 09:03:51;;;;;;;10.77;5.77;;;1.70;99.90;;;;;;5044848;28;20528;-74
2023/03/12 09:06:18;;;;;;;6.40;5.63;;;1.70;99.90;;;;;;5044900;28;20048;-74
2023/03/12 09:08:45;;;;;;;7.47;5.50;;;1.70;99.90;;;;;;5044788;28;20495;-74
2023/03/12 09:11:12;;;;;;;9.63;5.70;;;1.70;99.90;;;;;;5060031;28;20055;-71
2023/03/12 09:13:39;;;;;;;8.50;5.20;;;1.70;99.90;;;;;;5044405;28;20123;-74
2023/03/12 09:16:06;;;;;;;11.03;6.30;;;1.70;99.90;;;;;;5026127;28;20045;-72
2023/03/12 09:18:33;;;;;;;10.30;6.40;;;1.80;99.90;;;;;;5045269;28;20090;-73
2023/03/12 09:20:58;;;;;;;8.40;5.77;;;1.80;99.90;;;;;;5027183;28;20041;-73
2023/03/12 09:23:25;;;;;;;9.17;7.40;;;1.80;99.90;;;;;;5044525;28;20477;-73
2023/03/12 09:25:51;;;;;;;6.80;4.83;;;1.80;99.90;;;;;;5026983;28;20052;-74
2023/03/12 09:28:17;;;;;;;6.90;6.13;;;1.80;99.90;;;;;;5043383;28;20041;-73
2023/03/12 09:30:43;;;;;;;9.57;6.37;;;1.80;99.90;;;;;;5026457;28;20048;-74
2023/03/12 09:33:08;;;;;;;8.13;6.70;;;1.90;99.90;;;;;;5044039;28;20048;-73
2023/03/12 09:35:35;;;;;;;7.47;6.17;;;1.90;99.90;;;;;;5044459;28;20037;-73
2023/03/12 09:38:01;;;;;;;9.07;5.93;;;1.90;99.90;;;;;;5044197;28;20425;-74
2023/03/12 09:40:30;;;;;;;8.17;6.77;;;1.90;99.90;;;;;;5060098;28;20079;-73
2023/03/12 09:43:18;;;;;;;10.73;6.40;;;1.90;99.90;;;;;;5025802;28;20056;-73
2023/03/12 09:45:47;;;;;;;9.17;6.40;;;2.00;99.90;;;;;;5059355;28;20519;-73
2023/03/12 09:48:21;;;;;;;7.77;6.47;;;1.90;99.90;;;;;;5043848;28;20094;-73
2023/03/12 09:50:50;;;;;;;10.57;8.03;;;2.00;99.90;;;;;;5043946;28;20052;-73
2023/03/12 09:53:34;;;;;;;9.73;6.37;;;2.00;99.90;;;;;;5043755;28;20535;-74
2023/03/12 09:56:08;;;;;;;9.83;5.60;;;2.10;99.90;;;;;;5043810;28;20127;-76
2023/03/12 09:58:37;;;;;;;6.83;5.80;;;2.10;99.90;;;;;;5025450;28;20840;-73
2023/03/12 10:01:40;;;;;;;10.13;6.47;;;2.10;99.90;;;;;;5044074;28;20363;-73
2023/03/12 10:04:19;;;;;;;9.73;7.33;;;2.20;99.90;;;;;;5043934;28;20048;-73
2023/03/12 10:07:15;;;;;;;10.87;7.53;;;2.20;99.90;;;;;;5043705;28;20410;-74
2023/03/12 10:10:12;;;;;;;7.37;6.17;;;2.20;99.90;;;;;;5044100;28;20049;-73
2023/03/12 10:12:44;;;;;;;10.63;9.20;;;2.20;99.90;;;;;;5043033;28;20547;-73
2023/03/12 10:15:13;;;;;;;;;;;2.30;99.90;;;;;;5026202;28;20044;-73
2023/03/12 10:18:02;;;;;;;8.83;7.03;;;2.30;99.90;;;;;;5059078;28;19920;-73
2023/03/12 10:20:56;;;;;;;13.50;7.67;;;2.30;99.90;;;;;;5025920;28;20497;-74
2023/03/12 10:23:54;;;;;;;10.23;8.07;;;2.40;99.90;;;;;;5043650;28;20037;-73
2023/03/12 10:26:39;;;;;;;11.30;10.13;;;2.50;99.90;;;;;;5043199;28;20041;-73
2023/03/12 10:29:25;;;;;;;12.73;9.83;;;2.40;99.90;;;;;;5024343;28;20052;-74
2023/03/12 10:32:32;;;;;;;14.53;11.40;;;2.50;99.90;;;;;;5025853;28;20041;-74
2023/03/12 10:35:11;;;;;;;13.80;9.73;;;2.60;99.90;;;;;;5043948;28;20049;-73
2023/03/12 10:37:54;;;;;;;13.67;9.53;;;2.60;99.90;;;;;;5026023;28;20053;-74
2023/03/12 10:40:28;;;;;;;16.58;9.25;;;2.60;99.90;;;;;;5043646;28;20943;-73
2023/03/12 10:42:53;;;;;;;15.10;9.47;;;2.60;99.90;;;;;;5024759;28;20539;-73
2023/03/12 10:46:04;;;;;;;15.30;10.70;;;2.70;99.90;;;;;;5025370;28;20045;-74
2023/03/12 10:48:29;;;;;;;20.90;12.17;;;2.70;99.90;;;;;;5006246;28;20103;-75
2023/03/12 10:51:07;;;;;;;23.13;12.30;;;2.80;99.90;;;;;;5023836;28;20049;-74
2023/03/12 10:53:43;;;;;;;15.80;10.17;;;2.80;99.90;;;;;;5023432;28;20424;-74
2023/03/12 10:56:15;;;;;;;15.53;13.10;;;2.90;99.90;;;;;;5005515;28;20335;-74
2023/03/12 10:58:49;;;;;;;21.08;14.60;;;2.90;99.90;;;;;;5004972;28;20056;-74
2023/03/12 11:01:23;;;;;;;21.83;13.95;;;3.00;99.90;;;;;;5023469;28;20060;-73
2023/03/12 11:03:50;;;;;;;22.47;13.80;;;3.00;99.90;;;;;;5023977;28;20504;-73
2023/03/12 11:06:28;;;;;;;23.63;15.87;;;3.10;99.90;;;;;;5036836;28;20041;-74
2023/03/12 11:09:16;;;;;;;25.33;15.73;;;3.20;99.90;;;;;;5046192;28;20061;-73
2023/03/12 11:11:44;;;;;;;26.10;16.17;;;3.20;99.90;;;;;;5041173;28;20037;-73
2023/03/12 11:14:09;;;;;;;21.08;15.75;;;3.30;99.90;;;;;;5045050;28;20049;-73
2023/03/12 11:16:35;;;;;;;25.35;16.88;;;3.40;99.90;;;;;;5046032;28;20041;-73
2023/03/12 11:19:03;;;;;;;31.83;20.02;;;3.50;99.90;;;;;;5046031;28;20084;-74
2023/03/12 11:21:30;;;;;;;25.20;17.23;;;3.70;99.90;;;;;;5040765;28;20044;-74
2023/03/12 11:23:56;;;;;;;28.08;18.17;;;3.80;99.90;;;;;;5013686;28;20396;-73
2023/03/12 11:26:24;;;;;;;33.80;20.92;;;3.90;99.90;;;;;;5012534;28;20053;-73
2023/03/12 11:28:57;;;;;;;32.60;20.40;;;3.90;99.90;;;;;;5046378;28;20041;-75
2023/03/12 11:31:56;;;;;;;31.10;18.92;;;4.10;99.90;;;;;;5046557;28;20049;-74
2023/03/12 11:34:27;;;;;;;29.63;20.90;;;4.20;99.90;;;;;;5026449;28;20756;-74
2023/03/12 11:37:30;;;;;;;39.40;21.40;;;4.20;99.90;;;;;;5029099;28;20389;-74
2023/03/12 11:40:08;;;;;;;30.40;19.20;;;4.30;99.90;;;;;;5047858;28;20049;-74
2023/03/12 11:43:07;;;;;;;31.10;19.98;;;4.40;99.90;;;;;;5017352;28;20083;-75
2023/03/12 11:45:41;;;;;;;34.60;19.58;;;4.40;99.90;;;;;;5028831;28;20041;-74
2023/03/12 11:48:22;;;;;;;37.22;21.33;;;4.50;99.90;;;;;;5046443;28;20037;-73
2023/03/12 11:51:18;;;;;;;35.88;19.83;;;4.50;99.90;;;;;;5046881;28;20110;-74
2023/03/12 11:54:05;;;;;;;28.83;19.50;;;4.60;99.90;;;;;;5046599;28;20044;-74
2023/03/12 11:56:52;;;;;;;37.20;21.13;;;4.60;99.90;;;;;;5046496;28;20134;-75
2023/03/12 11:59:53;;;;;;;35.72;20.38;;;4.70;99.90;;;;;;5043630;28;20048;-74
2023/03/12 12:02:37;;;;;;;48.42;19.95;;;4.80;99.90;;;;;;4981119;28;20546;-75
2023/03/12 12:05:17;;;;;;;29.58;15.43;;;4.90;99.90;;;;;;5020953;28;20058;-74
2023/03/12 12:08:14;;;;;;;43.95;20.02;;;5.10;99.90;;;;;;4992156;28;20053;-71
2023/03/12 12:10:51;;;;;;;34.15;14.35;;;5.20;99.90;;;;;;5046920;28;20099;-72
2023/03/12 12:13:46;;;;;;;45.20;15.30;;;5.30;99.90;;;;;;5034018;28;20041;-71
2023/03/12 12:16:31;;;;;;;33.05;13.13;;;5.50;99.90;;;;;;5028548;28;20045;-71
2023/03/12 12:19:18;;;;;;;33.75;11.25;;;5.70;99.90;;;;;;5045745;28;20405;-72
2023/03/12 12:22:05;;;;;;;25.38;11.52;;;5.80;99.90;;;;;;5018271;28;20119;-72
2023/03/12 12:24:48;;;;;;;31.80;13.48;;;5.90;99.90;;;;;;5045774;28;20041;-72
2023/03/12 12:27:28;;;;;;;20.77;10.63;;;6.20;99.90;;;;;;5043184;28;20104;-72
2023/03/12 12:30:30;;;;;;;27.45;10.55;;;6.30;99.90;;;;;;5042190;28;20045;-72
2023/03/12 12:33:31;;;;;;;35.75;11.07;;;6.50;99.90;;;;;;4967982;28;20410;-74
2023/03/12 12:35:57;;;;;;;29.40;11.65;;;6.60;99.90;;;;;;5023157;28;20037;-74
2023/03/12 12:38:30;;;;;;;26.58;11.00;;;6.70;99.90;;;;;;5070314;28;20063;-78
2023/03/12 12:41:01;;;;;;;26.75;9.50;;;6.70;99.90;;;;;;5051850;28;20048;-74
2023/03/12 12:43:34;;;;;;;26.30;7.75;;;6.80;99.90;;;;;;5044606;28;20049;-75
2023/03/12 12:46:10;;;;;;;26.80;11.93;;;6.80;99.90;;;;;;5047201;28;20070;-77
2023/03/12 12:48:54;;;;;;;33.63;10.63;;;6.80;99.90;;;;;;5046395;28;20040;-75
2023/03/12 12:51:28;;;;;;;30.20;9.55;;;6.90;99.90;;;;;;5027984;28;20124;-75
2023/03/12 12:54:12;;;;;;;29.65;11.02;;;6.90;99.90;;;;;;5046158;28;20045;-75
2023/03/12 12:56:53;;;;;;;35.67;11.30;;;6.90;99.90;;;;;;5058288;28;20067;-75
2023/03/12 12:59:26;;;;;;;32.60;8.95;;;7.10;99.90;;;;;;5043709;28;20041;-77
2023/03/12 13:01:54;;;;;;;23.65;10.63;;;7.20;99.90;;;;;;5028677;28;20503;-76
2023/03/12 13:04:37;;;;;;;30.02;9.73;;;7.30;99.90;;;;;;5032926;28;20044;-75
2023/03/12 13:07:12;;;;;;;28.45;8.85;;;7.40;99.90;;;;;;5023078;28;20080;-74
2023/03/12 13:09:39;;;;;;;20.38;9.05;;;7.40;99.90;;;;;;5043618;28;20053;-74